sensor_id;sensor_type;location;lat;lon;timestamp;P1;durP1;ratioP1;P2;durP2;ratioP2
73150;SDS011;61354;50.758;6.106;2022-09-21T00:00:22;3.88;;;2.05;;
73150;SDS011;61354;50.758;6.106;2022-09-21T00:02:49;3.58;;;1.70;;
73150;SDS011;61354;50.758;6.106;2022-09-21T00:05:14;4.60;;;1.90;;
73150;SDS011;61354;50.758;6.106;2022-09-21T00:07:41;3.47;;;1.92;;
73150;SDS011;61354;50.758;6.106;2022-09-21T00:10:07;5.45;;;1.83;;
73150;SDS011;61354;50.758;6.106;2022-09-21T00:12:33;3.50;;;1.90;;
73150;SDS011;61354;50.758;6.106;2022-09-21T00:14:59;3.22;;;1.90;;
73150;SDS011;61354;50.758;6.106;2022-09-21T00:17:25;4.88;;;1.77;;
73150;SDS011;61354;50.758;6.106;2022-09-21T00:19:50;5.88;;;1.80;;
73150;SDS011;61354;50.758;6.106;2022-09-21T00:22:16;5.13;;;1.98;;
73150;SDS011;61354;50.758;6.106;2022-09-21T00:24:42;5.05;;;1.80;;
73150;SDS011;61354;50.758;6.106;2022-09-21T00:27:07;3.35;;;1.90;;
73150;SDS011;61354;50.758;6.106;2022-09-21T00:29:32;7.63;;;1.80;;
73150;SDS011;61354;50.758;6.106;2022-09-21T00:31:59;3.78;;;1.83;;
73150;SDS011;61354;50.758;6.106;2022-09-21T00:34:25;3.95;;;1.75;;
73150;SDS011;61354;50.758;6.106;2022-09-21T00:36:51;4.07;;;1.90;;
73150;SDS011;61354;50.758;6.106;2022-09-21T00:39:17;4.68;;;2.00;;
73150;SDS011;61354;50.758;6.106;2022-09-21T00:41:42;4.25;;;2.00;;
73150;SDS011;61354;50.758;6.106;2022-09-21T00:46:42;6.80;;;2.00;;
73150;SDS011;61354;50.758;6.106;2022-09-21T00:49:10;2.90;;;1.63;;
73150;SDS011;61354;50.758;6.106;2022-09-21T00:51:35;4.28;;;1.80;;
73150;SDS011;61354;50.758;6.106;2022-09-21T00:54:03;2.55;;;1.55;;
73150;SDS011;61354;50.758;6.106;2022-09-21T00:56:37;6.22;;;2.03;;
73150;SDS011;61354;50.758;6.106;2022-09-21T00:59:02;5.70;;;2.00;;
73150;SDS011;61354;50.758;6.106;2022-09-21T01:01:29;5.78;;;2.17;;
73150;SDS011;61354;50.758;6.106;2022-09-21T01:03:55;4.05;;;2.10;;
73150;SDS011;61354;50.758;6.106;2022-09-21T01:06:21;5.55;;;2.05;;
73150;SDS011;61354;50.758;6.106;2022-09-21T01:08:51;4.43;;;1.80;;
73150;SDS011;61354;50.758;6.106;2022-09-21T01:11:22;3.70;;;1.98;;
73150;SDS011;61354;50.758;6.106;2022-09-21T01:14:19;4.78;;;2.10;;
73150;SDS011;61354;50.758;6.106;2022-09-21T01:17:11;5.28;;;1.90;;
73150;SDS011;61354;50.758;6.106;2022-09-21T01:30:30;6.53;;;3.13;;
73150;SDS011;61354;50.758;6.106;2022-09-21T01:33:10;9.63;;;2.20;;
73150;SDS011;61354;50.758;6.106;2022-09-21T01:35:42;5.47;;;2.40;;
73150;SDS011;61354;50.758;6.106;2022-09-21T01:38:20;5.00;;;2.10;;
73150;SDS011;61354;50.758;6.106;2022-09-21T01:40:51;4.72;;;2.10;;
73150;SDS011;61354;50.758;6.106;2022-09-21T01:43:21;5.18;;;2.33;;
73150;SDS011;61354;50.758;6.106;2022-09-21T01:45:56;4.50;;;2.40;;
73150;SDS011;61354;50.758;6.106;2022-09-21T01:48:26;5.95;;;2.40;;
73150;SDS011;61354;50.758;6.106;2022-09-21T01:50:55;5.80;;;2.65;;
73150;SDS011;61354;50.758;6.106;2022-09-21T01:53:28;5.50;;;2.60;;
73150;SDS011;61354;50.758;6.106;2022-09-21T01:56:08;6.65;;;2.60;;
73150;SDS011;61354;50.758;6.106;2022-09-21T02:03:41;5.40;;;2.63;;
73150;SDS011;61354;50.758;6.106;2022-09-21T02:06:09;6.30;;;2.40;;
73150;SDS011;61354;50.758;6.106;2022-09-21T02:08:36;5.70;;;2.00;;
73150;SDS011;61354;50.758;6.106;2022-09-21T02:11:03;4.85;;;2.30;;
73150;SDS011;61354;50.758;6.106;2022-09-21T02:13:31;5.75;;;2.67;;
73150;SDS011;61354;50.758;6.106;2022-09-21T02:21:19;5.78;;;2.50;;
73150;SDS011;61354;50.758;6.106;2022-09-21T02:24:13;6.30;;;2.50;;
73150;SDS011;61354;50.758;6.106;2022-09-21T02:26:54;5.57;;;2.60;;
73150;SDS011;61354;50.758;6.106;2022-09-21T02:34:42;4.55;;;2.20;;
73150;SDS011;61354;50.758;6.106;2022-09-21T02:42:55;4.57;;;2.60;;
73150;SDS011;61354;50.758;6.106;2022-09-21T02:45:25;6.93;;;2.67;;
73150;SDS011;61354;50.758;6.106;2022-09-21T02:47:57;5.53;;;2.80;;
73150;SDS011;61354;50.758;6.106;2022-09-21T02:50:46;6.90;;;2.70;;
73150;SDS011;61354;50.758;6.106;2022-09-21T02:53:18;4.13;;;2.70;;
73150;SDS011;61354;50.758;6.106;2022-09-21T02:55:48;5.32;;;2.60;;
73150;SDS011;61354;50.758;6.106;2022-09-21T02:58:16;6.72;;;3.17;;
73150;SDS011;61354;50.758;6.106;2022-09-21T03:00:45;6.07;;;2.90;;
73150;SDS011;61354;50.758;6.106;2022-09-21T03:03:18;7.13;;;3.47;;
73150;SDS011;61354;50.758;6.106;2022-09-21T03:05:46;5.10;;;2.67;;
73150;SDS011;61354;50.758;6.106;2022-09-21T03:08:14;6.15;;;3.08;;
73150;SDS011;61354;50.758;6.106;2022-09-21T03:10:40;6.97;;;2.80;;
73150;SDS011;61354;50.758;6.106;2022-09-21T03:13:06;5.68;;;2.92;;
73150;SDS011;61354;50.758;6.106;2022-09-21T03:15:35;6.57;;;2.40;;
73150;SDS011;61354;50.758;6.106;2022-09-21T03:18:02;5.93;;;2.83;;
73150;SDS011;61354;50.758;6.106;2022-09-21T03:20:30;6.07;;;2.75;;
73150;SDS011;61354;50.758;6.106;2022-09-21T03:22:59;5.60;;;2.67;;
73150;SDS011;61354;50.758;6.106;2022-09-21T03:25:25;5.90;;;2.45;;
73150;SDS011;61354;50.758;6.106;2022-09-21T03:27:51;4.30;;;2.33;;
73150;SDS011;61354;50.758;6.106;2022-09-21T03:30:18;6.07;;;2.40;;
73150;SDS011;61354;50.758;6.106;2022-09-21T03:32:48;4.68;;;2.75;;
73150;SDS011;61354;50.758;6.106;2022-09-21T03:35:15;4.72;;;2.58;;
73150;SDS011;61354;50.758;6.106;2022-09-21T03:37:44;7.32;;;2.95;;
73150;SDS011;61354;50.758;6.106;2022-09-21T03:40:13;6.13;;;2.60;;
73150;SDS011;61354;50.758;6.106;2022-09-21T03:42:39;7.50;;;2.80;;
73150;SDS011;61354;50.758;6.106;2022-09-21T03:45:05;6.45;;;3.10;;
73150;SDS011;61354;50.758;6.106;2022-09-21T03:47:31;5.65;;;2.60;;
73150;SDS011;61354;50.758;6.106;2022-09-21T03:49:57;4.22;;;2.50;;
73150;SDS011;61354;50.758;6.106;2022-09-21T03:52:23;5.05;;;2.85;;
73150;SDS011;61354;50.758;6.106;2022-09-21T03:54:48;5.55;;;2.60;;
73150;SDS011;61354;50.758;6.106;2022-09-21T03:57:14;6.18;;;2.80;;
73150;SDS011;61354;50.758;6.106;2022-09-21T03:59:39;5.53;;;2.80;;
73150;SDS011;61354;50.758;6.106;2022-09-21T04:02:05;4.05;;;2.47;;
73150;SDS011;61354;50.758;6.106;2022-09-21T04:04:30;7.15;;;3.00;;
73150;SDS011;61354;50.758;6.106;2022-09-21T04:06:57;5.68;;;2.80;;
73150;SDS011;61354;50.758;6.106;2022-09-21T04:09:23;5.85;;;3.17;;
73150;SDS011;61354;50.758;6.106;2022-09-21T04:11:49;5.47;;;2.85;;
73150;SDS011;61354;50.758;6.106;2022-09-21T04:14:16;6.53;;;3.22;;
73150;SDS011;61354;50.758;6.106;2022-09-21T04:16:42;5.93;;;3.03;;
73150;SDS011;61354;50.758;6.106;2022-09-21T04:19:07;5.57;;;2.47;;
73150;SDS011;61354;50.758;6.106;2022-09-21T04:21:33;6.03;;;2.75;;
73150;SDS011;61354;50.758;6.106;2022-09-21T04:23:58;7.50;;;3.03;;
73150;SDS011;61354;50.758;6.106;2022-09-21T04:26:29;5.38;;;2.83;;
73150;SDS011;61354;50.758;6.106;2022-09-21T04:28:56;6.63;;;2.95;;
73150;SDS011;61354;50.758;6.106;2022-09-21T04:31:23;6.35;;;2.90;;
73150;SDS011;61354;50.758;6.106;2022-09-21T04:33:50;4.57;;;2.60;;
73150;SDS011;61354;50.758;6.106;2022-09-21T04:36:17;4.85;;;2.72;;
73150;SDS011;61354;50.758;6.106;2022-09-21T04:38:44;5.63;;;2.85;;
73150;SDS011;61354;50.758;6.106;2022-09-21T04:41:10;5.40;;;3.45;;
73150;SDS011;61354;50.758;6.106;2022-09-21T04:43:35;6.30;;;2.90;;
73150;SDS011;61354;50.758;6.106;2022-09-21T04:46:05;4.88;;;2.53;;
73150;SDS011;61354;50.758;6.106;2022-09-21T04:48:34;6.40;;;3.00;;
73150;SDS011;61354;50.758;6.106;2022-09-21T04:51:01;5.75;;;2.50;;
73150;SDS011;61354;50.758;6.106;2022-09-21T04:53:33;5.00;;;2.83;;
73150;SDS011;61354;50.758;6.106;2022-09-21T04:56:00;4.80;;;2.60;;
73150;SDS011;61354;50.758;6.106;2022-09-21T04:58:25;4.70;;;2.63;;
73150;SDS011;61354;50.758;6.106;2022-09-21T05:00:52;7.57;;;3.10;;
73150;SDS011;61354;50.758;6.106;2022-09-21T05:03:19;5.28;;;2.80;;
73150;SDS011;61354;50.758;6.106;2022-09-21T05:05:46;7.55;;;3.00;;
73150;SDS011;61354;50.758;6.106;2022-09-21T05:08:13;5.82;;;2.83;;
73150;SDS011;61354;50.758;6.106;2022-09-21T05:10:38;5.65;;;2.83;;
73150;SDS011;61354;50.758;6.106;2022-09-21T05:13:04;5.00;;;2.60;;
73150;SDS011;61354;50.758;6.106;2022-09-21T05:15:29;5.10;;;2.70;;
73150;SDS011;61354;50.758;6.106;2022-09-21T05:17:55;8.48;;;2.92;;
73150;SDS011;61354;50.758;6.106;2022-09-21T05:20:20;5.80;;;2.63;;
73150;SDS011;61354;50.758;6.106;2022-09-21T05:22:46;6.60;;;2.97;;
73150;SDS011;61354;50.758;6.106;2022-09-21T05:25:11;5.32;;;2.72;;
73150;SDS011;61354;50.758;6.106;2022-09-21T05:27:36;4.93;;;2.78;;
73150;SDS011;61354;50.758;6.106;2022-09-21T05:30:03;10.15;;;3.08;;
73150;SDS011;61354;50.758;6.106;2022-09-21T05:40:16;5.68;;;3.08;;
73150;SDS011;61354;50.758;6.106;2022-09-21T05:42:42;4.40;;;2.75;;
73150;SDS011;61354;50.758;6.106;2022-09-21T05:45:11;8.55;;;3.08;;
73150;SDS011;61354;50.758;6.106;2022-09-21T05:55:25;6.40;;;2.75;;
73150;SDS011;61354;50.758;6.106;2022-09-21T06:03:55;5.28;;;2.38;;
73150;SDS011;61354;50.758;6.106;2022-09-21T06:06:21;7.57;;;2.80;;
73150;SDS011;61354;50.758;6.106;2022-09-21T06:08:46;4.72;;;2.45;;
73150;SDS011;61354;50.758;6.106;2022-09-21T06:11:12;6.13;;;2.55;;
73150;SDS011;61354;50.758;6.106;2022-09-21T06:13:38;6.22;;;2.63;;
73150;SDS011;61354;50.758;6.106;2022-09-21T06:16:05;6.13;;;2.47;;
73150;SDS011;61354;50.758;6.106;2022-09-21T06:18:35;6.38;;;2.72;;
73150;SDS011;61354;50.758;6.106;2022-09-21T06:21:02;6.13;;;2.92;;
73150;SDS011;61354;50.758;6.106;2022-09-21T06:23:27;5.72;;;2.45;;
73150;SDS011;61354;50.758;6.106;2022-09-21T06:25:53;5.40;;;2.40;;
73150;SDS011;61354;50.758;6.106;2022-09-21T06:28:18;5.00;;;2.72;;
73150;SDS011;61354;50.758;6.106;2022-09-21T06:30:49;5.53;;;2.80;;
73150;SDS011;61354;50.758;6.106;2022-09-21T06:33:15;8.52;;;3.38;;
73150;SDS011;61354;50.758;6.106;2022-09-21T06:35:49;6.38;;;3.78;;
73150;SDS011;61354;50.758;6.106;2022-09-21T06:38:17;8.38;;;3.97;;
73150;SDS011;61354;50.758;6.106;2022-09-21T06:40:42;6.93;;;3.70;;
73150;SDS011;61354;50.758;6.106;2022-09-21T06:43:07;6.47;;;3.20;;
73150;SDS011;61354;50.758;6.106;2022-09-21T06:45:33;6.25;;;3.15;;
73150;SDS011;61354;50.758;6.106;2022-09-21T06:47:58;6.85;;;3.00;;
73150;SDS011;61354;50.758;6.106;2022-09-21T06:50:24;6.00;;;3.17;;
73150;SDS011;61354;50.758;6.106;2022-09-21T06:52:50;5.80;;;2.70;;
73150;SDS011;61354;50.758;6.106;2022-09-21T06:55:15;5.22;;;2.70;;
73150;SDS011;61354;50.758;6.106;2022-09-21T06:57:41;4.65;;;2.72;;
73150;SDS011;61354;50.758;6.106;2022-09-21T07:00:10;6.93;;;2.90;;
73150;SDS011;61354;50.758;6.106;2022-09-21T07:02:36;6.80;;;2.95;;
73150;SDS011;61354;50.758;6.106;2022-09-21T07:05:02;5.80;;;3.20;;
73150;SDS011;61354;50.758;6.106;2022-09-21T07:07:29;8.02;;;3.53;;
73150;SDS011;61354;50.758;6.106;2022-09-21T07:09:57;6.63;;;3.65;;
73150;SDS011;61354;50.758;6.106;2022-09-21T07:12:25;6.28;;;3.53;;
73150;SDS011;61354;50.758;6.106;2022-09-21T07:14:52;7.07;;;3.47;;
73150;SDS011;61354;50.758;6.106;2022-09-21T07:17:17;7.85;;;3.65;;
73150;SDS011;61354;50.758;6.106;2022-09-21T07:19:43;5.65;;;3.13;;
73150;SDS011;61354;50.758;6.106;2022-09-21T07:22:09;7.20;;;3.63;;
73150;SDS011;61354;50.758;6.106;2022-09-21T07:24:34;7.55;;;3.75;;
73150;SDS011;61354;50.758;6.106;2022-09-21T07:26:59;7.32;;;3.67;;
73150;SDS011;61354;50.758;6.106;2022-09-21T07:29:25;9.52;;;4.00;;
73150;SDS011;61354;50.758;6.106;2022-09-21T07:31:50;8.63;;;4.32;;
73150;SDS011;61354;50.758;6.106;2022-09-21T07:34:16;8.05;;;3.80;;
73150;SDS011;61354;50.758;6.106;2022-09-21T07:36:41;6.43;;;3.85;;
73150;SDS011;61354;50.758;6.106;2022-09-21T07:39:07;6.28;;;3.45;;
73150;SDS011;61354;50.758;6.106;2022-09-21T07:41:33;10.23;;;5.32;;
73150;SDS011;61354;50.758;6.106;2022-09-21T07:44:00;7.85;;;4.28;;
73150;SDS011;61354;50.758;6.106;2022-09-21T07:46:26;11.55;;;5.18;;
73150;SDS011;61354;50.758;6.106;2022-09-21T07:48:52;9.02;;;4.22;;
73150;SDS011;61354;50.758;6.106;2022-09-21T07:51:19;11.18;;;4.95;;
73150;SDS011;61354;50.758;6.106;2022-09-21T07:53:45;10.52;;;4.63;;
73150;SDS011;61354;50.758;6.106;2022-09-21T07:56:11;10.13;;;4.93;;
73150;SDS011;61354;50.758;6.106;2022-09-21T07:58:40;11.10;;;4.82;;
73150;SDS011;61354;50.758;6.106;2022-09-21T08:01:24;9.18;;;4.40;;
73150;SDS011;61354;50.758;6.106;2022-09-21T08:03:51;10.48;;;4.90;;
73150;SDS011;61354;50.758;6.106;2022-09-21T08:06:19;8.90;;;4.50;;
73150;SDS011;61354;50.758;6.106;2022-09-21T08:08:45;9.68;;;4.50;;
73150;SDS011;61354;50.758;6.106;2022-09-21T08:11:13;12.35;;;5.43;;
73150;SDS011;61354;50.758;6.106;2022-09-21T08:13:39;8.35;;;4.30;;
73150;SDS011;61354;50.758;6.106;2022-09-21T08:16:05;6.60;;;4.72;;
73150;SDS011;61354;50.758;6.106;2022-09-21T08:18:31;9.30;;;4.45;;
73150;SDS011;61354;50.758;6.106;2022-09-21T08:20:57;10.93;;;5.15;;
73150;SDS011;61354;50.758;6.106;2022-09-21T08:23:24;8.20;;;4.38;;
73150;SDS011;61354;50.758;6.106;2022-09-21T08:26:02;8.65;;;4.53;;
73150;SDS011;61354;50.758;6.106;2022-09-21T08:28:32;9.15;;;4.65;;
73150;SDS011;61354;50.758;6.106;2022-09-21T08:30:59;10.85;;;5.40;;
73150;SDS011;61354;50.758;6.106;2022-09-21T08:33:25;9.00;;;4.30;;
73150;SDS011;61354;50.758;6.106;2022-09-21T08:35:55;10.63;;;4.07;;
73150;SDS011;61354;50.758;6.106;2022-09-21T08:38:22;7.88;;;3.63;;
73150;SDS011;61354;50.758;6.106;2022-09-21T08:40:48;6.95;;;3.80;;
73150;SDS011;61354;50.758;6.106;2022-09-21T08:43:27;7.45;;;3.92;;
73150;SDS011;61354;50.758;6.106;2022-09-21T08:48:30;8.48;;;4.38;;
73150;SDS011;61354;50.758;6.106;2022-09-21T08:51:05;10.23;;;4.82;;
73150;SDS011;61354;50.758;6.106;2022-09-21T08:53:38;8.77;;;3.30;;
73150;SDS011;61354;50.758;6.106;2022-09-21T08:56:11;8.52;;;3.20;;
73150;SDS011;61354;50.758;6.106;2022-09-21T08:58:38;6.80;;;3.42;;
73150;SDS011;61354;50.758;6.106;2022-09-21T09:06:32;5.53;;;2.90;;
73150;SDS011;61354;50.758;6.106;2022-09-21T09:09:10;8.68;;;3.22;;
73150;SDS011;61354;50.758;6.106;2022-09-21T09:14:54;5.32;;;2.33;;
73150;SDS011;61354;50.758;6.106;2022-09-21T09:19:49;8.90;;;3.27;;
73150;SDS011;61354;50.758;6.106;2022-09-21T09:22:25;7.25;;;3.17;;
73150;SDS011;61354;50.758;6.106;2022-09-21T09:24:59;3.97;;;1.90;;
73150;SDS011;61354;50.758;6.106;2022-09-21T09:27:37;7.88;;;2.30;;
73150;SDS011;61354;50.758;6.106;2022-09-21T09:38:14;4.93;;;2.20;;
73150;SDS011;61354;50.758;6.106;2022-09-21T09:41:03;5.65;;;2.20;;
73150;SDS011;61354;50.758;6.106;2022-09-21T09:46:35;6.63;;;1.95;;
73150;SDS011;61354;50.758;6.106;2022-09-21T09:49:32;4.47;;;1.75;;
73150;SDS011;61354;50.758;6.106;2022-09-21T09:52:10;4.72;;;1.63;;
73150;SDS011;61354;50.758;6.106;2022-09-21T09:54:39;5.68;;;1.80;;
73150;SDS011;61354;50.758;6.106;2022-09-21T09:57:04;5.38;;;1.88;;
73150;SDS011;61354;50.758;6.106;2022-09-21T09:59:36;6.07;;;1.80;;
73150;SDS011;61354;50.758;6.106;2022-09-21T10:02:04;5.22;;;1.80;;
73150;SDS011;61354;50.758;6.106;2022-09-21T10:04:32;3.38;;;1.77;;
73150;SDS011;61354;50.758;6.106;2022-09-21T10:07:01;3.17;;;1.42;;
73150;SDS011;61354;50.758;6.106;2022-09-21T10:09:30;3.53;;;1.70;;
73150;SDS011;61354;50.758;6.106;2022-09-21T10:12:02;4.47;;;1.63;;
73150;SDS011;61354;50.758;6.106;2022-09-21T10:14:43;4.30;;;1.60;;
73150;SDS011;61354;50.758;6.106;2022-09-21T10:17:15;6.13;;;1.75;;
73150;SDS011;61354;50.758;6.106;2022-09-21T10:19:41;6.03;;;1.75;;
73150;SDS011;61354;50.758;6.106;2022-09-21T10:22:13;5.97;;;2.15;;
73150;SDS011;61354;50.758;6.106;2022-09-21T10:24:44;5.18;;;1.77;;
73150;SDS011;61354;50.758;6.106;2022-09-21T10:27:15;4.05;;;1.70;;
73150;SDS011;61354;50.758;6.106;2022-09-21T10:29:47;5.22;;;1.70;;
73150;SDS011;61354;50.758;6.106;2022-09-21T10:34:40;4.82;;;1.73;;
73150;SDS011;61354;50.758;6.106;2022-09-21T10:37:28;4.40;;;1.50;;
73150;SDS011;61354;50.758;6.106;2022-09-21T10:42:42;5.68;;;1.92;;
73150;SDS011;61354;50.758;6.106;2022-09-21T10:47:46;4.88;;;2.13;;
73150;SDS011;61354;50.758;6.106;2022-09-21T10:50:34;6.18;;;1.90;;
73150;SDS011;61354;50.758;6.106;2022-09-21T10:53:10;4.80;;;1.70;;
73150;SDS011;61354;50.758;6.106;2022-09-21T10:55:40;3.35;;;1.65;;
73150;SDS011;61354;50.758;6.106;2022-09-21T10:58:25;3.65;;;1.40;;
73150;SDS011;61354;50.758;6.106;2022-09-21T11:00:52;4.03;;;1.30;;
73150;SDS011;61354;50.758;6.106;2022-09-21T11:06:11;4.57;;;1.48;;
73150;SDS011;61354;50.758;6.106;2022-09-21T11:08:44;3.67;;;1.30;;
73150;SDS011;61354;50.758;6.106;2022-09-21T11:22:55;4.80;;;1.65;;
73150;SDS011;61354;50.758;6.106;2022-09-21T11:30:43;2.70;;;1.20;;
73150;SDS011;61354;50.758;6.106;2022-09-21T11:43:58;5.70;;;2.72;;
73150;SDS011;61354;50.758;6.106;2022-09-21T11:54:41;6.03;;;2.60;;
73150;SDS011;61354;50.758;6.106;2022-09-21T11:57:25;5.13;;;2.70;;
73150;SDS011;61354;50.758;6.106;2022-09-21T12:00:02;7.47;;;2.50;;
73150;SDS011;61354;50.758;6.106;2022-09-21T12:10:52;3.33;;;1.60;;
73150;SDS011;61354;50.758;6.106;2022-09-21T12:13:46;6.43;;;2.20;;
73150;SDS011;61354;50.758;6.106;2022-09-21T12:23:52;4.50;;;1.77;;
73150;SDS011;61354;50.758;6.106;2022-09-21T12:26:24;4.38;;;1.52;;
73150;SDS011;61354;50.758;6.106;2022-09-21T12:28:59;6.15;;;1.75;;
73150;SDS011;61354;50.758;6.106;2022-09-21T12:31:30;4.72;;;1.85;;
73150;SDS011;61354;50.758;6.106;2022-09-21T12:34:04;5.30;;;1.63;;
73150;SDS011;61354;50.758;6.106;2022-09-21T12:36:38;4.43;;;1.77;;
73150;SDS011;61354;50.758;6.106;2022-09-21T12:39:17;3.42;;;1.65;;
73150;SDS011;61354;50.758;6.106;2022-09-21T12:44:35;4.10;;;1.52;;
73150;SDS011;61354;50.758;6.106;2022-09-21T12:47:18;3.20;;;1.50;;
73150;SDS011;61354;50.758;6.106;2022-09-21T12:49:54;4.20;;;2.00;;
73150;SDS011;61354;50.758;6.106;2022-09-21T12:52:25;5.53;;;2.35;;
73150;SDS011;61354;50.758;6.106;2022-09-21T12:55:16;4.38;;;1.60;;
73150;SDS011;61354;50.758;6.106;2022-09-21T12:58:12;4.45;;;1.60;;
73150;SDS011;61354;50.758;6.106;2022-09-21T13:00:41;7.75;;;2.40;;
73150;SDS011;61354;50.758;6.106;2022-09-21T13:03:20;3.53;;;1.65;;
73150;SDS011;61354;50.758;6.106;2022-09-21T13:08:30;3.35;;;1.67;;
73150;SDS011;61354;50.758;6.106;2022-09-21T13:11:01;5.20;;;1.80;;
73150;SDS011;61354;50.758;6.106;2022-09-21T13:13:33;3.45;;;1.55;;
73150;SDS011;61354;50.758;6.106;2022-09-21T13:16:14;3.38;;;2.00;;
73150;SDS011;61354;50.758;6.106;2022-09-21T13:18:53;3.85;;;1.50;;
73150;SDS011;61354;50.758;6.106;2022-09-21T13:21:25;5.00;;;1.75;;
73150;SDS011;61354;50.758;6.106;2022-09-21T13:26:27;4.88;;;1.90;;
73150;SDS011;61354;50.758;6.106;2022-09-21T13:34:21;3.88;;;1.50;;
73150;SDS011;61354;50.758;6.106;2022-09-21T13:37:34;4.80;;;1.95;;
73150;SDS011;61354;50.758;6.106;2022-09-21T13:47:39;3.30;;;1.60;;
73150;SDS011;61354;50.758;6.106;2022-09-21T13:50:10;2.92;;;1.35;;
73150;SDS011;61354;50.758;6.106;2022-09-21T13:52:50;3.38;;;1.48;;
73150;SDS011;61354;50.758;6.106;2022-09-21T13:57:59;5.57;;;1.85;;
73150;SDS011;61354;50.758;6.106;2022-09-21T14:08:57;2.92;;;1.25;;
73150;SDS011;61354;50.758;6.106;2022-09-21T14:24:47;7.78;;;1.80;;
73150;SDS011;61354;50.758;6.106;2022-09-21T14:27:17;3.78;;;1.67;;
73150;SDS011;61354;50.758;6.106;2022-09-21T14:30:03;3.40;;;1.50;;
73150;SDS011;61354;50.758;6.106;2022-09-21T14:35:26;3.15;;;1.45;;
73150;SDS011;61354;50.758;6.106;2022-09-21T14:37:57;4.97;;;1.63;;
73150;SDS011;61354;50.758;6.106;2022-09-21T14:40:26;5.60;;;1.60;;
73150;SDS011;61354;50.758;6.106;2022-09-21T14:43:00;5.43;;;1.70;;
73150;SDS011;61354;50.758;6.106;2022-09-21T15:03:15;3.95;;;1.98;;
73150;SDS011;61354;50.758;6.106;2022-09-21T15:05:42;2.83;;;1.40;;
73150;SDS011;61354;50.758;6.106;2022-09-21T15:11:26;4.43;;;1.50;;
73150;SDS011;61354;50.758;6.106;2022-09-21T15:16:51;3.53;;;1.55;;
73150;SDS011;61354;50.758;6.106;2022-09-21T15:21:43;4.00;;;1.92;;
73150;SDS011;61354;50.758;6.106;2022-09-21T15:24:24;3.40;;;1.48;;
73150;SDS011;61354;50.758;6.106;2022-09-21T15:26:54;2.72;;;1.40;;
73150;SDS011;61354;50.758;6.106;2022-09-21T15:29:29;3.08;;;1.50;;
73150;SDS011;61354;50.758;6.106;2022-09-21T15:31:57;4.20;;;1.45;;
73150;SDS011;61354;50.758;6.106;2022-09-21T15:34:23;3.00;;;1.63;;
73150;SDS011;61354;50.758;6.106;2022-09-21T15:36:49;5.80;;;1.73;;
73150;SDS011;61354;50.758;6.106;2022-09-21T15:42:17;3.55;;;1.50;;
73150;SDS011;61354;50.758;6.106;2022-09-21T15:44:43;4.93;;;1.80;;
73150;SDS011;61354;50.758;6.106;2022-09-21T15:47:19;4.18;;;1.80;;
73150;SDS011;61354;50.758;6.106;2022-09-21T15:49:46;4.35;;;2.13;;
73150;SDS011;61354;50.758;6.106;2022-09-21T15:52:31;4.25;;;1.90;;
73150;SDS011;61354;50.758;6.106;2022-09-21T15:55:22;5.22;;;2.20;;
73150;SDS011;61354;50.758;6.106;2022-09-21T15:57:49;3.25;;;1.88;;
73150;SDS011;61354;50.758;6.106;2022-09-21T16:00:27;4.50;;;1.90;;
73150;SDS011;61354;50.758;6.106;2022-09-21T16:05:44;5.13;;;1.90;;
73150;SDS011;61354;50.758;6.106;2022-09-21T16:08:45;5.32;;;1.98;;
73150;SDS011;61354;50.758;6.106;2022-09-21T16:11:11;4.68;;;1.83;;
73150;SDS011;61354;50.758;6.106;2022-09-21T16:14:02;4.18;;;1.92;;
73150;SDS011;61354;50.758;6.106;2022-09-21T16:19:39;2.42;;;1.42;;
73150;SDS011;61354;50.758;6.106;2022-09-21T16:22:30;3.85;;;1.25;;
73150;SDS011;61354;50.758;6.106;2022-09-21T16:25:02;2.55;;;1.33;;
73150;SDS011;61354;50.758;6.106;2022-09-21T16:27:58;4.32;;;1.50;;
73150;SDS011;61354;50.758;6.106;2022-09-21T16:30:50;2.83;;;1.40;;
73150;SDS011;61354;50.758;6.106;2022-09-21T16:36:03;3.63;;;1.60;;
73150;SDS011;61354;50.758;6.106;2022-09-21T16:38:30;4.22;;;1.20;;
73150;SDS011;61354;50.758;6.106;2022-09-21T16:40:57;2.40;;;1.30;;
73150;SDS011;61354;50.758;6.106;2022-09-21T16:43:25;3.42;;;1.30;;
73150;SDS011;61354;50.758;6.106;2022-09-21T16:45:51;3.13;;;1.40;;
73150;SDS011;61354;50.758;6.106;2022-09-21T16:48:16;2.50;;;1.58;;
73150;SDS011;61354;50.758;6.106;2022-09-21T16:50:42;3.25;;;1.52;;
73150;SDS011;61354;50.758;6.106;2022-09-21T16:53:08;3.35;;;1.30;;
73150;SDS011;61354;50.758;6.106;2022-09-21T16:55:33;3.03;;;1.30;;
73150;SDS011;61354;50.758;6.106;2022-09-21T16:57:59;3.30;;;1.33;;
73150;SDS011;61354;50.758;6.106;2022-09-21T17:00:25;5.97;;;2.00;;
73150;SDS011;61354;50.758;6.106;2022-09-21T17:02:54;3.95;;;1.65;;
73150;SDS011;61354;50.758;6.106;2022-09-21T17:05:20;4.35;;;1.60;;
73150;SDS011;61354;50.758;6.106;2022-09-21T17:08:03;3.50;;;1.90;;
73150;SDS011;61354;50.758;6.106;2022-09-21T17:10:30;3.03;;;1.50;;
73150;SDS011;61354;50.758;6.106;2022-09-21T17:13:00;4.85;;;1.63;;
73150;SDS011;61354;50.758;6.106;2022-09-21T17:15:28;4.00;;;1.58;;
73150;SDS011;61354;50.758;6.106;2022-09-21T17:17:56;3.53;;;1.60;;
73150;SDS011;61354;50.758;6.106;2022-09-21T17:23:02;3.83;;;1.58;;
73150;SDS011;61354;50.758;6.106;2022-09-21T17:25:29;3.85;;;2.00;;
73150;SDS011;61354;50.758;6.106;2022-09-21T17:27:57;4.20;;;1.70;;
73150;SDS011;61354;50.758;6.106;2022-09-21T17:30:23;3.67;;;1.58;;
73150;SDS011;61354;50.758;6.106;2022-09-21T17:32:51;6.22;;;2.00;;
73150;SDS011;61354;50.758;6.106;2022-09-21T17:35:36;4.20;;;2.13;;
73150;SDS011;61354;50.758;6.106;2022-09-21T17:38:03;6.53;;;3.15;;
73150;SDS011;61354;50.758;6.106;2022-09-21T17:40:29;3.28;;;1.85;;
73150;SDS011;61354;50.758;6.106;2022-09-21T17:43:01;3.83;;;2.22;;
73150;SDS011;61354;50.758;6.106;2022-09-21T17:46:00;6.82;;;2.65;;
73150;SDS011;61354;50.758;6.106;2022-09-21T17:48:32;4.05;;;2.20;;
73150;SDS011;61354;50.758;6.106;2022-09-21T17:50:58;5.55;;;2.20;;
73150;SDS011;61354;50.758;6.106;2022-09-21T17:53:24;6.20;;;2.90;;
73150;SDS011;61354;50.758;6.106;2022-09-21T17:59:04;5.82;;;2.60;;
73150;SDS011;61354;50.758;6.106;2022-09-21T18:01:38;5.10;;;3.55;;
73150;SDS011;61354;50.758;6.106;2022-09-21T18:04:04;4.47;;;3.05;;
73150;SDS011;61354;50.758;6.106;2022-09-21T18:06:31;5.20;;;2.90;;
73150;SDS011;61354;50.758;6.106;2022-09-21T18:09:00;6.55;;;4.40;;
73150;SDS011;61354;50.758;6.106;2022-09-21T18:11:42;5.20;;;3.25;;
73150;SDS011;61354;50.758;6.106;2022-09-21T18:14:49;7.18;;;3.10;;
73150;SDS011;61354;50.758;6.106;2022-09-21T18:20:02;8.18;;;5.43;;
73150;SDS011;61354;50.758;6.106;2022-09-21T18:25:37;13.07;;;6.13;;
73150;SDS011;61354;50.758;6.106;2022-09-21T18:28:21;8.38;;;6.25;;
73150;SDS011;61354;50.758;6.106;2022-09-21T18:31:42;7.80;;;4.80;;
73150;SDS011;61354;50.758;6.106;2022-09-21T18:41:43;5.70;;;3.92;;
73150;SDS011;61354;50.758;6.106;2022-09-21T18:50:28;4.18;;;2.65;;
73150;SDS011;61354;50.758;6.106;2022-09-21T18:53:18;5.55;;;3.08;;
73150;SDS011;61354;50.758;6.106;2022-09-21T18:55:50;5.05;;;3.20;;
73150;SDS011;61354;50.758;6.106;2022-09-21T18:58:16;5.78;;;3.40;;
73150;SDS011;61354;50.758;6.106;2022-09-21T19:00:42;9.05;;;4.32;;
73150;SDS011;61354;50.758;6.106;2022-09-21T19:03:12;7.25;;;4.00;;
73150;SDS011;61354;50.758;6.106;2022-09-21T19:05:46;6.90;;;4.10;;
73150;SDS011;61354;50.758;6.106;2022-09-21T19:09:03;6.90;;;3.80;;
73150;SDS011;61354;50.758;6.106;2022-09-21T19:14:53;7.70;;;3.70;;
73150;SDS011;61354;50.758;6.106;2022-09-21T19:28:14;8.00;;;4.38;;
73150;SDS011;61354;50.758;6.106;2022-09-21T19:30:48;6.00;;;3.70;;
73150;SDS011;61354;50.758;6.106;2022-09-21T19:33:24;7.38;;;3.90;;
73150;SDS011;61354;50.758;6.106;2022-09-21T19:35:54;5.97;;;3.50;;
73150;SDS011;61354;50.758;6.106;2022-09-21T19:38:20;6.20;;;3.85;;